createdAt,value
2022-10-24T00:00:22.973Z,12.02
2022-10-24T00:05:24.557Z,12.15
2022-10-24T00:10:26.183Z,12.17
2022-10-24T00:15:27.697Z,12.05
2022-10-24T00:20:29.254Z,11.94
2022-10-24T00:25:30.832Z,11.88
2022-10-24T00:30:32.458Z,11.82
2022-10-24T00:35:34.091Z,11.72
2022-10-24T00:40:35.637Z,11.69
2022-10-24T00:45:55.627Z,11.61
2022-10-24T00:50:59.036Z,11.49
2022-10-24T00:56:02.901Z,11.41
2022-10-24T01:01:06.134Z,11.39
2022-10-24T01:06:23.394Z,11.36
2022-10-24T01:11:27.872Z,11.35
2022-10-24T01:16:35.476Z,11.28
2022-10-24T01:21:45.828Z,11.24
2022-10-24T01:27:12.005Z,11.27
2022-10-24T01:32:32.374Z,11.19
2022-10-24T01:37:43.691Z,11.12
2022-10-24T01:42:46.967Z,11.13
2022-10-24T01:47:53.332Z,11.17
2022-10-24T01:52:57.619Z,11.07
2022-10-24T01:57:59.824Z,11.02
2022-10-24T02:03:27.344Z,10.99
2022-10-24T02:08:35.578Z,10.97
2022-10-24T02:13:53.336Z,10.99
2022-10-24T02:18:57.516Z,10.99
2022-10-24T02:24:25.329Z,10.99
2022-10-24T02:29:34.065Z,10.99
2022-10-24T02:34:38.574Z,10.95
2022-10-24T02:39:42.669Z,10.91
2022-10-24T02:44:48.090Z,10.85
2022-10-24T02:49:49.834Z,10.84
2022-10-24T02:54:51.501Z,10.84
2022-10-24T02:59:53.830Z,10.95
2022-10-24T03:04:55.373Z,11.08
2022-10-24T03:09:56.931Z,11.15
2022-10-24T03:14:58.438Z,11.17
2022-10-24T03:19:59.984Z,11.19
2022-10-24T03:25:03.461Z,11.27
2022-10-24T03:30:05.844Z,11.22
2022-10-24T03:35:11.711Z,11.20
2022-10-24T03:40:15.683Z,11.10
2022-10-24T03:45:17.314Z,11.10
2022-10-24T03:50:19.259Z,11.12
2022-10-24T03:55:20.804Z,11.10
2022-10-24T04:00:22.482Z,11.16
2022-10-24T04:05:24.020Z,11.19
2022-10-24T04:10:25.900Z,11.26
2022-10-24T04:15:27.634Z,11.12
2022-10-24T04:20:29.425Z,11.25
2022-10-24T04:25:30.951Z,11.38
2022-10-24T04:30:32.793Z,11.46
2022-10-24T04:35:36.511Z,11.44
2022-10-24T04:40:38.053Z,11.64
2022-10-24T04:45:39.651Z,11.77
2022-10-24T04:50:42.291Z,12.04
2022-10-24T04:55:47.290Z,12.20
2022-10-24T05:00:49.743Z,12.29
2022-10-24T05:05:51.453Z,12.45
2022-10-24T05:10:53.369Z,12.57
2022-10-24T05:15:55.072Z,12.61
2022-10-24T05:20:57.990Z,12.61
2022-10-24T05:25:59.614Z,12.65
2022-10-24T05:31:01.198Z,12.60
2022-10-24T05:36:03.550Z,12.67
2022-10-24T05:41:05.228Z,12.76
2022-10-24T05:46:07.389Z,12.89
2022-10-24T05:51:09.044Z,13.00
2022-10-24T05:56:10.609Z,13.17
2022-10-24T06:01:13.213Z,13.29
2022-10-24T06:06:14.864Z,13.36
2022-10-24T06:11:16.999Z,13.39
2022-10-24T06:16:18.670Z,13.42
2022-10-24T06:21:20.230Z,13.42
2022-10-24T06:26:24.019Z,13.44
2022-10-24T06:31:44.316Z,13.42
2022-10-24T06:36:45.726Z,13.46
2022-10-24T06:41:47.356Z,13.56
2022-10-24T06:46:52.325Z,13.67
2022-10-24T06:51:53.875Z,13.78
2022-10-24T06:56:55.473Z,13.82
2022-10-24T07:02:01.712Z,13.80
2022-10-24T07:07:06.737Z,13.76
2022-10-24T07:12:08.652Z,13.76
2022-10-24T07:17:10.213Z,13.77
2022-10-24T07:22:17.397Z,13.78
2022-10-24T07:27:18.924Z,13.87
2022-10-24T07:32:20.913Z,14.10
2022-10-24T07:37:22.533Z,14.27
2022-10-24T07:42:24.114Z,14.59
2022-10-24T07:47:25.777Z,14.92
2022-10-24T07:52:27.418Z,15.12
2022-10-24T07:57:29.027Z,15.20
2022-10-24T08:02:30.542Z,15.29
2022-10-24T08:07:32.237Z,15.51
2022-10-24T08:12:34.073Z,15.85
2022-10-24T08:17:36.802Z,16.15
2022-10-24T08:22:39.576Z,16.27
2022-10-24T08:32:49.051Z,16.40
2022-10-24T08:37:50.632Z,16.51
2022-10-24T08:42:52.416Z,16.61
2022-10-24T08:48:08.861Z,16.73
2022-10-24T08:53:21.246Z,16.83
2022-10-24T08:58:31.545Z,16.83
2022-10-24T09:03:56.638Z,16.83
2022-10-24T09:09:12.277Z,16.94
2022-10-24T09:14:17.627Z,17.05
2022-10-24T09:19:23.178Z,17.19
2022-10-24T09:24:30.514Z,17.35
2022-10-24T09:29:33.992Z,17.49
2022-10-24T09:34:35.556Z,17.61
2022-10-24T09:39:37.092Z,17.83
2022-10-24T09:44:44.035Z,18.13
2022-10-24T09:49:49.025Z,18.32
2022-10-24T09:55:17.818Z,18.42
2022-10-24T10:00:31.549Z,18.54
2022-10-24T10:05:46.450Z,18.69
2022-10-24T10:11:06.985Z,18.72
2022-10-24T10:16:22.113Z,18.78
2022-10-24T10:21:25.136Z,18.82
2022-10-24T10:26:45.051Z,18.60
2022-10-24T10:31:56.583Z,18.58
2022-10-24T10:37:17.090Z,18.80
2022-10-24T10:43:03.086Z,18.99
2022-10-24T10:48:40.138Z,19.27
2022-10-24T10:54:01.567Z,19.54
2022-10-24T10:59:06.054Z,19.66
2022-10-24T11:04:30.577Z,19.69
2022-10-24T11:09:50.909Z,19.66
2022-10-24T11:20:30.345Z,19.52
2022-10-24T11:25:46.857Z,19.46
2022-10-24T11:31:10.633Z,19.42
2022-10-24T11:36:23.446Z,19.40
2022-10-24T11:41:43.020Z,19.38
2022-10-24T11:46:49.922Z,19.19
2022-10-24T11:51:57.563Z,18.96
2022-10-24T11:57:04.308Z,18.85
2022-10-24T12:02:21.086Z,18.90
2022-10-24T12:08:04.419Z,19.09
2022-10-24T12:13:20.886Z,19.31
2022-10-24T12:18:31.040Z,19.34
2022-10-24T12:23:33.066Z,19.36
2022-10-24T12:28:35.975Z,19.27
2022-10-24T12:33:37.517Z,19.21
2022-10-24T12:38:39.261Z,19.22
2022-10-24T12:43:47.948Z,19.15
2022-10-24T12:48:58.947Z,19.14
2022-10-24T12:54:12.776Z,19.15
2022-10-24T12:59:24.722Z,19.20
2022-10-24T13:04:52.854Z,19.19
2022-10-24T13:10:12.262Z,19.14
2022-10-24T13:15:24.569Z,19.11
2022-10-24T13:20:29.466Z,19.10
2022-10-24T13:25:40.477Z,18.96
2022-10-24T13:30:44.783Z,18.88
2022-10-24T13:35:49.275Z,18.97
2022-10-24T13:40:51.041Z,19.07
2022-10-24T13:45:52.514Z,19.10
2022-10-24T13:51:21.707Z,19.07
2022-10-24T13:56:23.391Z,19.14
2022-10-24T14:01:30.279Z,19.25
2022-10-24T14:06:33.787Z,19.29
2022-10-24T14:11:40.592Z,19.24
2022-10-24T14:16:42.131Z,18.95
2022-10-24T14:21:46.042Z,18.83
2022-10-24T14:26:51.530Z,18.86
2022-10-24T14:32:07.932Z,19.05
2022-10-24T14:37:24.937Z,19.16
2022-10-24T14:42:27.831Z,18.94
2022-10-24T14:47:35.732Z,18.63
2022-10-24T14:52:38.031Z,18.30
2022-10-24T14:57:39.889Z,18.10
2022-10-24T15:02:43.274Z,17.90
2022-10-24T15:08:02.973Z,17.67
2022-10-24T15:13:15.231Z,17.48
2022-10-24T15:18:24.676Z,17.41
2022-10-24T15:23:27.810Z,17.40
2022-10-24T15:29:07.040Z,17.41
2022-10-24T15:34:12.597Z,17.34
2022-10-24T15:39:18.095Z,17.35
2022-10-24T15:44:26.517Z,17.28
2022-10-24T15:49:28.980Z,17.18
2022-10-24T15:54:30.537Z,17.08
2022-10-24T15:59:32.479Z,16.89
2022-10-24T16:04:34.062Z,16.66
2022-10-24T16:09:35.570Z,16.38
2022-10-24T16:14:37.119Z,16.19
2022-10-24T16:19:38.632Z,16.01
2022-10-24T16:24:40.256Z,15.87
2022-10-24T16:29:41.778Z,15.77
2022-10-24T16:34:48.808Z,15.70
2022-10-24T16:39:50.341Z,15.66
2022-10-24T16:44:52.423Z,15.70
2022-10-24T16:49:57.855Z,15.72
2022-10-24T16:54:59.523Z,15.74
2022-10-24T17:00:01.104Z,15.64
2022-10-24T17:05:02.664Z,15.23
2022-10-24T17:10:04.566Z,14.88
2022-10-24T17:15:06.965Z,14.72
2022-10-24T17:20:09.994Z,14.57
2022-10-24T17:25:26.244Z,14.41
2022-10-24T17:30:29.723Z,14.27
2022-10-24T17:35:32.352Z,14.00
2022-10-24T17:40:43.214Z,13.63
2022-10-24T17:45:45.038Z,13.37
2022-10-24T17:50:49.193Z,13.13
2022-10-24T17:55:50.717Z,12.94
2022-10-24T18:00:52.373Z,12.82
2022-10-24T18:05:58.730Z,12.78
2022-10-24T18:11:02.285Z,12.73
2022-10-24T18:16:08.817Z,12.65
2022-10-24T18:21:13.459Z,12.63
2022-10-24T18:26:20.832Z,12.67
2022-10-24T18:31:25.348Z,12.69
2022-10-24T18:36:29.964Z,12.70
2022-10-24T18:41:41.559Z,12.77
2022-10-24T18:46:43.478Z,12.77
2022-10-24T18:52:07.176Z,12.78
2022-10-24T18:57:33.371Z,12.76
2022-10-24T19:02:43.232Z,12.83
2022-10-24T19:07:45.875Z,12.81
2022-10-24T19:12:48.295Z,12.82
2022-10-24T19:17:51.165Z,12.92
2022-10-24T19:22:52.805Z,13.03
2022-10-24T19:27:54.521Z,13.09
2022-10-24T19:32:56.177Z,13.06
2022-10-24T19:37:57.727Z,12.90
2022-10-24T19:42:59.310Z,12.72
2022-10-24T19:48:01.226Z,12.60
2022-10-24T19:53:02.937Z,12.54
2022-10-24T19:58:12.561Z,12.57
2022-10-24T20:03:15.004Z,12.71
2022-10-24T20:08:16.582Z,12.73
2022-10-24T20:13:18.262Z,12.78
2022-10-24T20:18:19.840Z,12.70
2022-10-24T20:23:22.644Z,12.60
2022-10-24T20:28:24.241Z,12.40
2022-10-24T20:33:25.817Z,12.28
2022-10-24T20:38:28.492Z,12.15
2022-10-24T20:43:30.232Z,11.97
2022-10-24T20:48:33.386Z,11.82
2022-10-24T20:53:34.997Z,11.66
2022-10-24T20:58:38.272Z,11.54
2022-10-24T21:03:40.334Z,11.44
2022-10-24T21:08:41.932Z,11.36
2022-10-24T21:13:44.708Z,11.29
2022-10-24T21:18:46.294Z,11.26
2022-10-24T21:23:51.967Z,11.21
2022-10-24T21:28:59.465Z,11.10
2022-10-24T21:34:10.850Z,11.03
2022-10-24T21:39:16.679Z,10.93
2022-10-24T21:44:18.246Z,10.81
2022-10-24T21:49:20.397Z,10.81
2022-10-24T21:54:24.443Z,10.74
2022-10-24T21:59:25.968Z,10.61
2022-10-24T22:04:27.545Z,10.40
2022-10-24T22:09:29.180Z,10.22
2022-10-24T22:14:30.780Z,10.12
2022-10-24T22:19:32.345Z,10.00
2022-10-24T22:24:33.910Z,9.85
2022-10-24T22:29:35.424Z,9.69
2022-10-24T22:34:39.502Z,9.51
2022-10-24T22:39:41.510Z,9.37
2022-10-24T22:44:44.036Z,9.25
2022-10-24T22:50:21.628Z,9.21
2022-10-24T22:55:43.782Z,9.18
2022-10-24T23:00:50.569Z,9.07
2022-10-24T23:05:59.758Z,8.98
2022-10-24T23:11:01.568Z,8.93
2022-10-24T23:16:29.052Z,9.06
2022-10-24T23:21:36.208Z,8.97
2022-10-24T23:26:49.573Z,9.12
2022-10-24T23:31:51.405Z,9.38
2022-10-24T23:36:59.066Z,9.49
2022-10-24T23:42:01.448Z,9.55
2022-10-24T23:47:39.355Z,9.60
2022-10-24T23:53:01.987Z,9.62
2022-10-24T23:58:03.550Z,9.62
